sensor_id;sensor_type;location;lat;lon;timestamp;temperature;humidity
21121;DHT22;12519;43.318;21.898;2023-05-10T00:00:13;15.0;90.0
21121;DHT22;12519;43.318;21.898;2023-05-10T00:04:51;15.0;90.0
21121;DHT22;12519;43.318;21.898;2023-05-10T00:09:27;15.0;90.0
21121;DHT22;12519;43.318;21.898;2023-05-10T00:14:03;14.8;91.0
21121;DHT22;12519;43.318;21.898;2023-05-10T00:18:40;14.8;91.0
21121;DHT22;12519;43.318;21.898;2023-05-10T00:23:17;14.8;91.0
21121;DHT22;12519;43.318;21.898;2023-05-10T00:27:54;14.8;91.0
21121;DHT22;12519;43.318;21.898;2023-05-10T00:32:31;14.7;91.0
21121;DHT22;12519;43.318;21.898;2023-05-10T00:37:08;14.7;91.0
21121;DHT22;12519;43.318;21.898;2023-05-10T00:41:45;14.7;91.0
21121;DHT22;12519;43.318;21.898;2023-05-10T00:46:22;14.7;91.0
21121;DHT22;12519;43.318;21.898;2023-05-10T00:51:02;14.7;91.0
21121;DHT22;12519;43.318;21.898;2023-05-10T00:55:41;14.7;91.0
21121;DHT22;12519;43.318;21.898;2023-05-10T01:00:20;14.8;91.0
21121;DHT22;12519;43.318;21.898;2023-05-10T01:04:58;14.8;91.0
21121;DHT22;12519;43.318;21.898;2023-05-10T01:09:39;14.8;91.0
21121;DHT22;12519;43.318;21.898;2023-05-10T01:14:19;14.8;90.0
21121;DHT22;12519;43.318;21.898;2023-05-10T01:18:57;14.8;90.0
21121;DHT22;12519;43.318;21.898;2023-05-10T01:24:12;14.8;90.0
21121;DHT22;12519;43.318;21.898;2023-05-10T01:30:46;14.8;90.0
21121;DHT22;12519;43.318;21.898;2023-05-10T01:36:09;14.8;90.0
21121;DHT22;12519;43.318;21.898;2023-05-10T01:41:18;14.8;90.0
21121;DHT22;12519;43.318;21.898;2023-05-10T01:46:35;14.8;90.0
21121;DHT22;12519;43.318;21.898;2023-05-10T01:51:23;14.7;90.0
21121;DHT22;12519;43.318;21.898;2023-05-10T01:56:26;14.7;90.0
21121;DHT22;12519;43.318;21.898;2023-05-10T02:01:14;14.8;90.0
21121;DHT22;12519;43.318;21.898;2023-05-10T02:06:01;14.8;90.0
21121;DHT22;12519;43.318;21.898;2023-05-10T02:10:54;14.8;90.0
21121;DHT22;12519;43.318;21.898;2023-05-10T02:15:40;14.8;90.0
21121;DHT22;12519;43.318;21.898;2023-05-10T02:20:26;14.8;90.0
21121;DHT22;12519;43.318;21.898;2023-05-10T02:25:13;14.8;90.0
21121;DHT22;12519;43.318;21.898;2023-05-10T02:29:54;14.8;90.0
21121;DHT22;12519;43.318;21.898;2023-05-10T02:34:33;14.8;90.0
21121;DHT22;12519;43.318;21.898;2023-05-10T02:39:14;14.8;90.0
21121;DHT22;12519;43.318;21.898;2023-05-10T02:44:01;14.7;90.0
21121;DHT22;12519;43.318;21.898;2023-05-10T02:48:43;14.7;90.0
21121;DHT22;12519;43.318;21.898;2023-05-10T02:53:28;14.6;91.0
21121;DHT22;12519;43.318;21.898;2023-05-10T02:58:11;14.6;91.0
21121;DHT22;12519;43.318;21.898;2023-05-10T03:02:48;14.6;91.0
21121;DHT22;12519;43.318;21.898;2023-05-10T03:07:25;14.6;91.0
21121;DHT22;12519;43.318;21.898;2023-05-10T03:12:14;14.5;91.0
21121;DHT22;12519;43.318;21.898;2023-05-10T03:17:51;14.5;91.0
21121;DHT22;12519;43.318;21.898;2023-05-10T03:22:55;14.5;91.0
21121;DHT22;12519;43.318;21.898;2023-05-10T03:28:04;14.5;91.0
21121;DHT22;12519;43.318;21.898;2023-05-10T03:32:44;14.5;91.0
21121;DHT22;12519;43.318;21.898;2023-05-10T03:37:21;14.5;91.0
21121;DHT22;12519;43.318;21.898;2023-05-10T03:41:57;14.5;91.0
21121;DHT22;12519;43.318;21.898;2023-05-10T03:46:34;14.5;91.0
21121;DHT22;12519;43.318;21.898;2023-05-10T03:51:10;14.5;91.0
21121;DHT22;12519;43.318;21.898;2023-05-10T03:55:47;14.5;91.0
21121;DHT22;12519;43.318;21.898;2023-05-10T04:00:23;14.6;91.0
21121;DHT22;12519;43.318;21.898;2023-05-10T04:05:00;14.6;91.0
21121;DHT22;12519;43.318;21.898;2023-05-10T04:09:37;14.6;91.0
21121;DHT22;12519;43.318;21.898;2023-05-10T04:14:13;14.6;92.0
21121;DHT22;12519;43.318;21.898;2023-05-10T04:18:49;14.6;92.0
21121;DHT22;12519;43.318;21.898;2023-05-10T04:23:27;15.8;90.0
21121;DHT22;12519;43.318;21.898;2023-05-10T04:28:04;15.8;90.0
21121;DHT22;12519;43.318;21.898;2023-05-10T04:32:40;16.9;88.0
21121;DHT22;12519;43.318;21.898;2023-05-10T04:37:17;16.9;88.0
21121;DHT22;12519;43.318;21.898;2023-05-10T04:41:54;16.3;86.0
21121;DHT22;12519;43.318;21.898;2023-05-10T04:46:31;16.3;86.0
21121;DHT22;12519;43.318;21.898;2023-05-10T04:51:08;15.7;84.0
21121;DHT22;12519;43.318;21.898;2023-05-10T04:55:44;15.7;84.0
21121;DHT22;12519;43.318;21.898;2023-05-10T05:00:21;15.7;84.0
21121;DHT22;12519;43.318;21.898;2023-05-10T05:04:57;15.2;86.0
21121;DHT22;12519;43.318;21.898;2023-05-10T05:09:34;15.2;86.0
21121;DHT22;12519;43.318;21.898;2023-05-10T05:14:10;14.8;87.0
21121;DHT22;12519;43.318;21.898;2023-05-10T05:18:46;14.8;87.0
21121;DHT22;12519;43.318;21.898;2023-05-10T05:23:22;14.8;87.0
21121;DHT22;12519;43.318;21.898;2023-05-10T05:27:59;14.8;87.0
21121;DHT22;12519;43.318;21.898;2023-05-10T05:32:35;14.7;87.0
21121;DHT22;12519;43.318;21.898;2023-05-10T05:37:13;14.7;87.0
21121;DHT22;12519;43.318;21.898;2023-05-10T05:41:52;14.8;87.0
21121;DHT22;12519;43.318;21.898;2023-05-10T05:46:29;14.8;87.0
21121;DHT22;12519;43.318;21.898;2023-05-10T05:51:05;14.8;87.0
21121;DHT22;12519;43.318;21.898;2023-05-10T05:55:52;14.8;87.0
21121;DHT22;12519;43.318;21.898;2023-05-10T06:00:34;14.8;87.0
21121;DHT22;12519;43.318;21.898;2023-05-10T06:05:11;14.8;87.0
21121;DHT22;12519;43.318;21.898;2023-05-10T06:09:47;14.8;87.0
21121;DHT22;12519;43.318;21.898;2023-05-10T06:14:24;14.7;86.0
21121;DHT22;12519;43.318;21.898;2023-05-10T06:19:01;14.7;86.0
21121;DHT22;12519;43.318;21.898;2023-05-10T06:23:39;15.3;87.0
21121;DHT22;12519;43.318;21.898;2023-05-10T06:28:15;15.3;87.0
21121;DHT22;12519;43.318;21.898;2023-05-10T06:32:52;15.9;87.0
21121;DHT22;12519;43.318;21.898;2023-05-10T06:37:29;15.9;87.0
21121;DHT22;12519;43.318;21.898;2023-05-10T06:42:05;16.4;84.0
21121;DHT22;12519;43.318;21.898;2023-05-10T06:46:42;16.4;84.0
21121;DHT22;12519;43.318;21.898;2023-05-10T06:51:18;17.0;81.0
21121;DHT22;12519;43.318;21.898;2023-05-10T06:55:54;17.0;81.0
21121;DHT22;12519;43.318;21.898;2023-05-10T07:00:31;17.0;81.0
21121;DHT22;12519;43.318;21.898;2023-05-10T07:05:09;16.0;81.0
21121;DHT22;12519;43.318;21.898;2023-05-10T07:09:46;16.0;81.0
21121;DHT22;12519;43.318;21.898;2023-05-10T07:14:23;15.1;80.0
21121;DHT22;12519;43.318;21.898;2023-05-10T07:19:00;15.1;80.0
21121;DHT22;12519;43.318;21.898;2023-05-10T07:23:36;14.8;81.0
21121;DHT22;12519;43.318;21.898;2023-05-10T07:28:14;14.8;81.0
21121;DHT22;12519;43.318;21.898;2023-05-10T07:32:52;14.6;82.0
21121;DHT22;12519;43.318;21.898;2023-05-10T07:37:28;14.6;82.0
21121;DHT22;12519;43.318;21.898;2023-05-10T07:42:05;14.6;81.0
21121;DHT22;12519;43.318;21.898;2023-05-10T07:46:42;14.6;81.0
21121;DHT22;12519;43.318;21.898;2023-05-10T07:51:18;14.5;81.0
21121;DHT22;12519;43.318;21.898;2023-05-10T07:55:58;14.5;81.0
21121;DHT22;12519;43.318;21.898;2023-05-10T08:00:35;14.5;81.0
21121;DHT22;12519;43.318;21.898;2023-05-10T08:05:12;14.6;81.0
21121;DHT22;12519;43.318;21.898;2023-05-10T08:09:48;14.6;81.0
21121;DHT22;12519;43.318;21.898;2023-05-10T08:14:27;14.6;81.0
21121;DHT22;12519;43.318;21.898;2023-05-10T08:19:05;14.6;81.0
21121;DHT22;12519;43.318;21.898;2023-05-10T08:23:41;14.6;81.0
21121;DHT22;12519;43.318;21.898;2023-05-10T08:28:18;14.6;81.0
21121;DHT22;12519;43.318;21.898;2023-05-10T08:32:55;14.7;81.0
21121;DHT22;12519;43.318;21.898;2023-05-10T08:37:32;14.7;81.0
21121;DHT22;12519;43.318;21.898;2023-05-10T08:42:09;14.8;80.0
21121;DHT22;12519;43.318;21.898;2023-05-10T08:46:57;14.8;80.0
21121;DHT22;12519;43.318;21.898;2023-05-10T08:51:54;14.9;80.0
21121;DHT22;12519;43.318;21.898;2023-05-10T08:56:40;14.9;80.0
21121;DHT22;12519;43.318;21.898;2023-05-10T09:01:20;15.0;80.0
21121;DHT22;12519;43.318;21.898;2023-05-10T09:06:02;15.0;80.0
21121;DHT22;12519;43.318;21.898;2023-05-10T09:10:41;15.0;80.0
21121;DHT22;12519;43.318;21.898;2023-05-10T09:15:22;15.0;80.0
21121;DHT22;12519;43.318;21.898;2023-05-10T09:20:02;15.0;80.0
21121;DHT22;12519;43.318;21.898;2023-05-10T09:24:43;15.2;80.0
21121;DHT22;12519;43.318;21.898;2023-05-10T09:29:20;15.2;80.0
21121;DHT22;12519;43.318;21.898;2023-05-10T09:33:56;15.4;81.0
21121;DHT22;12519;43.318;21.898;2023-05-10T09:38:46;15.4;81.0
21121;DHT22;12519;43.318;21.898;2023-05-10T09:43:27;15.2;80.0
21121;DHT22;12519;43.318;21.898;2023-05-10T09:48:14;15.2;80.0
21121;DHT22;12519;43.318;21.898;2023-05-10T09:52:54;15.1;80.0
21121;DHT22;12519;43.318;21.898;2023-05-10T09:57:39;15.1;80.0
21121;DHT22;12519;43.318;21.898;2023-05-10T10:02:17;15.2;80.0
21121;DHT22;12519;43.318;21.898;2023-05-10T10:07:03;15.2;80.0
21121;DHT22;12519;43.318;21.898;2023-05-10T10:11:41;15.4;80.0
21121;DHT22;12519;43.318;21.898;2023-05-10T10:16:18;15.4;80.0
21121;DHT22;12519;43.318;21.898;2023-05-10T10:20:57;15.4;80.0
21121;DHT22;12519;43.318;21.898;2023-05-10T10:25:35;15.5;79.0
21121;DHT22;12519;43.318;21.898;2023-05-10T10:30:27;15.5;79.0
21121;DHT22;12519;43.318;21.898;2023-05-10T10:35:17;15.6;79.0
21121;DHT22;12519;43.318;21.898;2023-05-10T10:39:55;15.6;79.0
21121;DHT22;12519;43.318;21.898;2023-05-10T10:44:37;15.8;78.0
21121;DHT22;12519;43.318;21.898;2023-05-10T10:49:14;15.8;78.0
21121;DHT22;12519;43.318;21.898;2023-05-10T10:53:51;16.0;77.0
21121;DHT22;12519;43.318;21.898;2023-05-10T10:58:31;16.0;77.0
21121;DHT22;12519;43.318;21.898;2023-05-10T11:03:12;16.1;77.0
21121;DHT22;12519;43.318;21.898;2023-05-10T11:07:53;16.1;77.0
21121;DHT22;12519;43.318;21.898;2023-05-10T11:12:52;16.2;77.0
21121;DHT22;12519;43.318;21.898;2023-05-10T11:17:38;16.2;77.0
21121;DHT22;12519;43.318;21.898;2023-05-10T11:22:15;16.2;77.0
21121;DHT22;12519;43.318;21.898;2023-05-10T11:26:53;16.2;77.0
21121;DHT22;12519;43.318;21.898;2023-05-10T11:31:32;16.3;77.0
21121;DHT22;12519;43.318;21.898;2023-05-10T11:36:20;16.3;77.0
21121;DHT22;12519;43.318;21.898;2023-05-10T11:41:04;16.3;77.0
21121;DHT22;12519;43.318;21.898;2023-05-10T11:45:45;16.8;78.0
21121;DHT22;12519;43.318;21.898;2023-05-10T11:50:22;16.8;78.0
21121;DHT22;12519;43.318;21.898;2023-05-10T11:54:59;17.3;80.0
21121;DHT22;12519;43.318;21.898;2023-05-10T11:59:36;17.3;80.0
21121;DHT22;12519;43.318;21.898;2023-05-10T12:04:13;17.4;77.0
21121;DHT22;12519;43.318;21.898;2023-05-10T12:08:50;17.4;77.0
21121;DHT22;12519;43.318;21.898;2023-05-10T12:13:26;17.4;75.0
21121;DHT22;12519;43.318;21.898;2023-05-10T12:18:04;17.4;75.0
21121;DHT22;12519;43.318;21.898;2023-05-10T12:22:47;17.3;75.0
21121;DHT22;12519;43.318;21.898;2023-05-10T12:27:32;17.3;75.0
21121;DHT22;12519;43.318;21.898;2023-05-10T12:32:08;17.2;76.0
21121;DHT22;12519;43.318;21.898;2023-05-10T12:36:45;17.2;76.0
21121;DHT22;12519;43.318;21.898;2023-05-10T12:41:28;17.2;76.0
21121;DHT22;12519;43.318;21.898;2023-05-10T12:46:07;17.2;76.0
21121;DHT22;12519;43.318;21.898;2023-05-10T12:50:50;17.2;76.0
21121;DHT22;12519;43.318;21.898;2023-05-10T12:55:27;17.2;76.0
21121;DHT22;12519;43.318;21.898;2023-05-10T13:00:06;17.2;76.0
21121;DHT22;12519;43.318;21.898;2023-05-10T13:04:48;17.4;75.0
21121;DHT22;12519;43.318;21.898;2023-05-10T13:09:26;17.4;75.0
21121;DHT22;12519;43.318;21.898;2023-05-10T13:14:03;17.5;75.0
21121;DHT22;12519;43.318;21.898;2023-05-10T13:18:40;17.5;75.0
21121;DHT22;12519;43.318;21.898;2023-05-10T13:23:16;17.6;75.0
21121;DHT22;12519;43.318;21.898;2023-05-10T13:27:52;17.6;75.0
21121;DHT22;12519;43.318;21.898;2023-05-10T13:32:28;17.8;75.0
21121;DHT22;12519;43.318;21.898;2023-05-10T13:37:05;17.8;75.0
21121;DHT22;12519;43.318;21.898;2023-05-10T13:41:42;17.9;75.0
21121;DHT22;12519;43.318;21.898;2023-05-10T13:46:19;17.9;75.0
21121;DHT22;12519;43.318;21.898;2023-05-10T13:50:55;17.9;75.0
21121;DHT22;12519;43.318;21.898;2023-05-10T13:55:32;18.0;74.0
21121;DHT22;12519;43.318;21.898;2023-05-10T14:00:11;18.0;74.0
21121;DHT22;12519;43.318;21.898;2023-05-10T14:04:51;18.0;74.0
21121;DHT22;12519;43.318;21.898;2023-05-10T14:09:28;18.0;74.0
21121;DHT22;12519;43.318;21.898;2023-05-10T14:14:04;17.9;74.0
21121;DHT22;12519;43.318;21.898;2023-05-10T14:18:41;17.9;74.0
21121;DHT22;12519;43.318;21.898;2023-05-10T14:23:18;18.0;75.0
21121;DHT22;12519;43.318;21.898;2023-05-10T14:27:55;18.0;75.0
21121;DHT22;12519;43.318;21.898;2023-05-10T14:32:31;18.2;76.0
21121;DHT22;12519;43.318;21.898;2023-05-10T14:37:11;18.2;76.0
21121;DHT22;12519;43.318;21.898;2023-05-10T14:41:50;18.0;75.0
21121;DHT22;12519;43.318;21.898;2023-05-10T14:46:26;18.0;75.0
21121;DHT22;12519;43.318;21.898;2023-05-10T14:51:03;18.0;75.0
21121;DHT22;12519;43.318;21.898;2023-05-10T14:55:39;17.9;74.0
21121;DHT22;12519;43.318;21.898;2023-05-10T15:00:18;17.9;74.0
21121;DHT22;12519;43.318;21.898;2023-05-10T15:04:57;17.8;75.0
21121;DHT22;12519;43.318;21.898;2023-05-10T15:09:34;17.8;75.0
21121;DHT22;12519;43.318;21.898;2023-05-10T15:14:10;17.7;75.0
21121;DHT22;12519;43.318;21.898;2023-05-10T15:18:48;17.7;75.0
21121;DHT22;12519;43.318;21.898;2023-05-10T15:23:24;17.6;75.0
21121;DHT22;12519;43.318;21.898;2023-05-10T15:28:01;17.6;75.0
21121;DHT22;12519;43.318;21.898;2023-05-10T15:32:40;17.6;75.0
21121;DHT22;12519;43.318;21.898;2023-05-10T15:37:16;17.6;75.0
21121;DHT22;12519;43.318;21.898;2023-05-10T15:41:53;17.5;76.0
21121;DHT22;12519;43.318;21.898;2023-05-10T15:46:30;17.5;76.0
21121;DHT22;12519;43.318;21.898;2023-05-10T15:51:06;17.5;76.0
21121;DHT22;12519;43.318;21.898;2023-05-10T15:55:43;17.3;76.0
21121;DHT22;12519;43.318;21.898;2023-05-10T16:00:19;17.3;76.0
21121;DHT22;12519;43.318;21.898;2023-05-10T16:04:56;17.2;76.0
21121;DHT22;12519;43.318;21.898;2023-05-10T16:09:32;17.2;76.0
21121;DHT22;12519;43.318;21.898;2023-05-10T16:14:08;17.1;76.0
21121;DHT22;12519;43.318;21.898;2023-05-10T16:18:45;17.1;76.0
21121;DHT22;12519;43.318;21.898;2023-05-10T16:23:21;17.0;76.0
21121;DHT22;12519;43.318;21.898;2023-05-10T16:27:59;17.0;76.0
21121;DHT22;12519;43.318;21.898;2023-05-10T16:32:37;17.0;76.0
21121;DHT22;12519;43.318;21.898;2023-05-10T16:37:13;17.0;76.0
21121;DHT22;12519;43.318;21.898;2023-05-10T16:41:50;17.0;76.0
21121;DHT22;12519;43.318;21.898;2023-05-10T16:46:27;16.9;76.0
21121;DHT22;12519;43.318;21.898;2023-05-10T16:51:04;16.9;76.0
21121;DHT22;12519;43.318;21.898;2023-05-10T16:55:41;16.8;76.0
21121;DHT22;12519;43.318;21.898;2023-05-10T17:00:18;16.8;76.0
21121;DHT22;12519;43.318;21.898;2023-05-10T17:04:56;16.8;76.0
21121;DHT22;12519;43.318;21.898;2023-05-10T17:09:32;16.8;76.0
21121;DHT22;12519;43.318;21.898;2023-05-10T17:14:09;16.7;76.0
21121;DHT22;12519;43.318;21.898;2023-05-10T17:18:46;16.7;76.0
21121;DHT22;12519;43.318;21.898;2023-05-10T17:23:23;16.7;76.0
21121;DHT22;12519;43.318;21.898;2023-05-10T17:27:59;16.7;76.0
21121;DHT22;12519;43.318;21.898;2023-05-10T17:32:36;16.7;76.0
21121;DHT22;12519;43.318;21.898;2023-05-10T17:37:12;16.7;76.0
21121;DHT22;12519;43.318;21.898;2023-05-10T17:41:48;16.7;76.0
21121;DHT22;12519;43.318;21.898;2023-05-10T17:46:25;16.5;76.0
21121;DHT22;12519;43.318;21.898;2023-05-10T17:51:01;16.5;76.0
21121;DHT22;12519;43.318;21.898;2023-05-10T17:55:40;16.4;76.0
21121;DHT22;12519;43.318;21.898;2023-05-10T18:00:18;16.4;76.0
21121;DHT22;12519;43.318;21.898;2023-05-10T18:04:56;16.4;76.0
21121;DHT22;12519;43.318;21.898;2023-05-10T18:09:32;16.4;76.0
21121;DHT22;12519;43.318;21.898;2023-05-10T18:14:09;16.3;76.0
21121;DHT22;12519;43.318;21.898;2023-05-10T18:18:46;16.3;76.0
21121;DHT22;12519;43.318;21.898;2023-05-10T18:23:23;16.2;76.0
21121;DHT22;12519;43.318;21.898;2023-05-10T18:28:00;16.2;76.0
21121;DHT22;12519;43.318;21.898;2023-05-10T18:32:36;16.1;76.0
21121;DHT22;12519;43.318;21.898;2023-05-10T18:37:12;16.1;76.0
21121;DHT22;12519;43.318;21.898;2023-05-10T18:41:49;16.1;76.0
21121;DHT22;12519;43.318;21.898;2023-05-10T18:46:25;16.0;76.0
21121;DHT22;12519;43.318;21.898;2023-05-10T18:51:02;16.0;76.0
21121;DHT22;12519;43.318;21.898;2023-05-10T18:55:38;16.0;76.0
21121;DHT22;12519;43.318;21.898;2023-05-10T19:00:15;16.0;76.0
21121;DHT22;12519;43.318;21.898;2023-05-10T19:04:52;16.0;77.0
21121;DHT22;12519;43.318;21.898;2023-05-10T19:09:28;16.0;77.0
21121;DHT22;12519;43.318;21.898;2023-05-10T19:14:04;16.0;78.0
21121;DHT22;12519;43.318;21.898;2023-05-10T19:18:41;16.0;78.0
21121;DHT22;12519;43.318;21.898;2023-05-10T19:23:19;16.0;78.0
21121;DHT22;12519;43.318;21.898;2023-05-10T19:27:56;16.0;78.0
21121;DHT22;12519;43.318;21.898;2023-05-10T19:32:33;16.1;77.0
21121;DHT22;12519;43.318;21.898;2023-05-10T19:37:10;16.1;77.0
21121;DHT22;12519;43.318;21.898;2023-05-10T19:41:46;16.1;77.0
21121;DHT22;12519;43.318;21.898;2023-05-10T19:46:23;16.0;77.0
21121;DHT22;12519;43.318;21.898;2023-05-10T19:51:03;16.0;77.0
21121;DHT22;12519;43.318;21.898;2023-05-10T19:55:40;15.8;77.0
21121;DHT22;12519;43.318;21.898;2023-05-10T20:00:17;15.8;77.0
21121;DHT22;12519;43.318;21.898;2023-05-10T20:04:54;15.8;77.0
21121;DHT22;12519;43.318;21.898;2023-05-10T20:09:30;15.8;77.0
21121;DHT22;12519;43.318;21.898;2023-05-10T20:14:08;15.7;78.0
21121;DHT22;12519;43.318;21.898;2023-05-10T20:18:44;15.7;78.0
21121;DHT22;12519;43.318;21.898;2023-05-10T20:23:21;15.7;78.0
21121;DHT22;12519;43.318;21.898;2023-05-10T20:27:58;15.7;78.0
21121;DHT22;12519;43.318;21.898;2023-05-10T20:32:36;15.7;78.0
21121;DHT22;12519;43.318;21.898;2023-05-10T20:37:14;15.7;78.0
21121;DHT22;12519;43.318;21.898;2023-05-10T20:41:51;15.7;78.0
21121;DHT22;12519;43.318;21.898;2023-05-10T20:46:28;15.6;78.0
21121;DHT22;12519;43.318;21.898;2023-05-10T20:51:05;15.6;78.0
21121;DHT22;12519;43.318;21.898;2023-05-10T20:55:41;15.6;78.0
21121;DHT22;12519;43.318;21.898;2023-05-10T21:00:19;15.6;78.0
21121;DHT22;12519;43.318;21.898;2023-05-10T21:04:58;15.6;78.0
21121;DHT22;12519;43.318;21.898;2023-05-10T21:09:34;15.6;78.0
21121;DHT22;12519;43.318;21.898;2023-05-10T21:14:10;15.5;78.0
21121;DHT22;12519;43.318;21.898;2023-05-10T21:18:47;15.5;78.0
21121;DHT22;12519;43.318;21.898;2023-05-10T21:23:25;15.4;78.0
21121;DHT22;12519;43.318;21.898;2023-05-10T21:28:01;15.4;78.0
21121;DHT22;12519;43.318;21.898;2023-05-10T21:32:37;15.4;78.0
21121;DHT22;12519;43.318;21.898;2023-05-10T21:37:15;15.4;78.0
21121;DHT22;12519;43.318;21.898;2023-05-10T21:41:51;15.4;78.0
21121;DHT22;12519;43.318;21.898;2023-05-10T21:46:28;15.4;78.0
21121;DHT22;12519;43.318;21.898;2023-05-10T21:51:06;15.4;78.0
21121;DHT22;12519;43.318;21.898;2023-05-10T21:55:42;15.5;78.0
21121;DHT22;12519;43.318;21.898;2023-05-10T22:00:19;15.5;78.0
21121;DHT22;12519;43.318;21.898;2023-05-10T22:04:56;15.4;78.0
21121;DHT22;12519;43.318;21.898;2023-05-10T22:09:33;15.4;78.0
21121;DHT22;12519;43.318;21.898;2023-05-10T22:14:10;15.4;78.0
21121;DHT22;12519;43.318;21.898;2023-05-10T22:18:47;15.4;78.0
21121;DHT22;12519;43.318;21.898;2023-05-10T22:23:23;15.4;78.0
21121;DHT22;12519;43.318;21.898;2023-05-10T22:28:00;15.4;78.0
21121;DHT22;12519;43.318;21.898;2023-05-10T22:32:37;15.3;78.0
21121;DHT22;12519;43.318;21.898;2023-05-10T22:37:15;15.3;78.0
21121;DHT22;12519;43.318;21.898;2023-05-10T22:41:52;15.3;78.0
21121;DHT22;12519;43.318;21.898;2023-05-10T22:46:30;15.3;78.0
21121;DHT22;12519;43.318;21.898;2023-05-10T22:51:07;15.3;78.0
21121;DHT22;12519;43.318;21.898;2023-05-10T22:55:44;15.3;78.0
21121;DHT22;12519;43.318;21.898;2023-05-10T23:00:21;15.3;78.0
21121;DHT22;12519;43.318;21.898;2023-05-10T23:04:58;15.3;78.0
21121;DHT22;12519;43.318;21.898;2023-05-10T23:09:35;15.3;78.0
21121;DHT22;12519;43.318;21.898;2023-05-10T23:14:12;15.3;78.0
21121;DHT22;12519;43.318;21.898;2023-05-10T23:18:49;15.3;78.0
21121;DHT22;12519;43.318;21.898;2023-05-10T23:23:26;15.3;78.0
21121;DHT22;12519;43.318;21.898;2023-05-10T23:28:03;15.3;78.0
21121;DHT22;12519;43.318;21.898;2023-05-10T23:32:41;15.3;78.0
21121;DHT22;12519;43.318;21.898;2023-05-10T23:37:17;15.3;78.0
21121;DHT22;12519;43.318;21.898;2023-05-10T23:41:54;15.3;78.0
21121;DHT22;12519;43.318;21.898;2023-05-10T23:46:31;15.3;78.0
21121;DHT22;12519;43.318;21.898;2023-05-10T23:51:08;15.3;78.0
